This is the latest recevied weather packets stored in our database for station/object KD7MPG-3. If no packets are shown the sender has not sent any weather packets the latest 1 day(s).
| Time | Temp. | Humidity | Pressure | Rain* | Wind** | Luminosity | Snow |
|---|---|---|---|---|---|---|---|
| 1778033186 | 18.89° C | 74% | 1023.8 hPa | 0 mm | - | - | - |
| 1778032584 | 19.44° C | 73% | 1023.8 hPa | 0 mm | - | - | - |
| 1778032285 | 19.44° C | 72% | 1023.8 hPa | 0 mm | - | - | - |
| 1778031680 | 20° C | 71% | 1023.8 hPa | 0 mm | - | - | - |
| 1778031380 | 20.56° C | 70% | 1023.7 hPa | 0 mm | - | - | - |
| 1778031075 | 20.56° C | 69% | 1023.8 hPa | 0 mm | - | - | - |
| 1778030773 | 21.11° C | 69% | 1023.8 hPa | 0 mm | - | - | - |
| 1778030473 | 21.11° C | 69% | 1023.8 hPa | 0 mm | - | - | - |
| 1778030175 | 21.11° C | 70% | 1023.7 hPa | 0 mm | - | - | - |
| 1778029269 | 21.11° C | 68% | 1023.7 hPa | 0 mm | - | - | - |
| 1778028968 | 21.11° C | 68% | 1023.7 hPa | 0 mm | - | - | - |
| 1778028367 | 21.11° C | 69% | 1023.8 hPa | 0 mm | - | - | - |
| 1778028067 | 21.11° C | 69% | 1023.8 hPa | 0 mm | - | - | - |
| 1778027767 | 21.11° C | 67% | 1023.7 hPa | 0 mm | - | - | - |
| 1778026862 | 21.11° C | 69% | 1023.8 hPa | 0 mm | - | - | - |
| 1778025659 | 20° C | 70% | 1023.8 hPa | 0 mm | - | - | - |
| 1778020843 | 18.33° C | 76% | 1024.6 hPa | 0 mm | - | - | - |
| 1778017533 | 17.78° C | 76% | 1024.8 hPa | 0 mm | - | - | - |
| 1778016932 | 17.78° C | 77% | 1024.9 hPa | 0 mm | - | - | - |
| 1778015126 | 17.22° C | 77% | 1024.9 hPa | 0 mm | - | - | - |
| 1778014521 | 17.22° C | 78% | 1025 hPa | 0 mm | - | - | - |
| 1778013320 | 16.67° C | 78% | 1025.1 hPa | 0 mm | - | - | - |
| 1778012715 | 16.67° C | 78% | 1025 hPa | 0 mm | - | - | - |
| 1778011813 | 16.67° C | 78% | 1025.1 hPa | 0 mm | - | - | - |
| 1778011208 | 16.67° C | 78% | 1025 hPa | 0 mm | - | - | - |
* Rain latest hour (hover to see other rain measurements)
** Current wind speed in m/s (hover to see current wind gust speed)